sensor_id;sensor_type;location;lat;lon;timestamp;P1;durP1;ratioP1;P2;durP2;ratioP2
54899;SDS011;40801;41.924;25.562;2023-07-24T00:00:44;15.77;;;14.10;;
54899;SDS011;40801;41.924;25.562;2023-07-24T00:03:09;15.48;;;14.27;;
54899;SDS011;40801;41.924;25.562;2023-07-24T00:05:34;13.98;;;12.70;;
54899;SDS011;40801;41.924;25.562;2023-07-24T00:08:00;15.13;;;13.65;;
54899;SDS011;40801;41.924;25.562;2023-07-24T00:10:26;13.90;;;12.55;;
54899;SDS011;40801;41.924;25.562;2023-07-24T00:12:52;13.52;;;12.32;;
54899;SDS011;40801;41.924;25.562;2023-07-24T00:15:17;14.85;;;12.50;;
54899;SDS011;40801;41.924;25.562;2023-07-24T00:17:43;12.77;;;11.40;;
54899;SDS011;40801;41.924;25.562;2023-07-24T00:20:08;11.82;;;10.73;;
54899;SDS011;40801;41.924;25.562;2023-07-24T00:22:34;12.07;;;11.07;;
54899;SDS011;40801;41.924;25.562;2023-07-24T00:24:59;12.27;;;11.05;;
54899;SDS011;40801;41.924;25.562;2023-07-24T00:27:24;11.70;;;10.73;;
54899;SDS011;40801;41.924;25.562;2023-07-24T00:29:50;13.13;;;12.02;;
54899;SDS011;40801;41.924;25.562;2023-07-24T00:32:15;12.95;;;11.70;;
54899;SDS011;40801;41.924;25.562;2023-07-24T00:34:41;16.55;;;13.18;;
54899;SDS011;40801;41.924;25.562;2023-07-24T00:37:06;15.57;;;13.48;;
54899;SDS011;40801;41.924;25.562;2023-07-24T00:39:32;14.65;;;13.23;;
54899;SDS011;40801;41.924;25.562;2023-07-24T00:41:57;15.85;;;14.27;;
54899;SDS011;40801;41.924;25.562;2023-07-24T00:44:23;15.35;;;13.93;;
54899;SDS011;40801;41.924;25.562;2023-07-24T00:46:48;17.08;;;15.48;;
54899;SDS011;40801;41.924;25.562;2023-07-24T00:49:14;15.13;;;13.75;;
54899;SDS011;40801;41.924;25.562;2023-07-24T00:51:39;18.75;;;16.80;;
54899;SDS011;40801;41.924;25.562;2023-07-24T00:54:05;22.17;;;19.95;;
54899;SDS011;40801;41.924;25.562;2023-07-24T00:56:32;21.08;;;18.40;;
54899;SDS011;40801;41.924;25.562;2023-07-24T00:58:58;23.50;;;20.02;;
54899;SDS011;40801;41.924;25.562;2023-07-24T01:01:25;20.42;;;18.42;;
54899;SDS011;40801;41.924;25.562;2023-07-24T01:03:52;23.63;;;19.58;;
54899;SDS011;40801;41.924;25.562;2023-07-24T01:06:17;27.52;;;22.20;;
54899;SDS011;40801;41.924;25.562;2023-07-24T01:08:43;27.30;;;23.48;;
54899;SDS011;40801;41.924;25.562;2023-07-24T01:14:02;30.75;;;23.70;;
54899;SDS011;40801;41.924;25.562;2023-07-24T01:16:40;27.63;;;24.65;;
54899;SDS011;40801;41.924;25.562;2023-07-24T01:27:45;31.13;;;26.42;;
54899;SDS011;40801;41.924;25.562;2023-07-24T01:30:16;30.77;;;25.20;;
54899;SDS011;40801;41.924;25.562;2023-07-24T01:32:43;30.98;;;25.80;;
54899;SDS011;40801;41.924;25.562;2023-07-24T01:35:08;34.13;;;24.70;;
54899;SDS011;40801;41.924;25.562;2023-07-24T01:37:34;28.55;;;24.30;;
54899;SDS011;40801;41.924;25.562;2023-07-24T01:40:02;31.30;;;25.58;;
54899;SDS011;40801;41.924;25.562;2023-07-24T01:42:28;31.35;;;26.23;;
54899;SDS011;40801;41.924;25.562;2023-07-24T01:44:55;31.77;;;25.17;;
54899;SDS011;40801;41.924;25.562;2023-07-24T01:47:20;34.72;;;26.65;;
54899;SDS011;40801;41.924;25.562;2023-07-24T01:49:46;29.77;;;25.05;;
54899;SDS011;40801;41.924;25.562;2023-07-24T01:52:12;29.75;;;24.52;;
54899;SDS011;40801;41.924;25.562;2023-07-24T01:54:37;33.65;;;26.42;;
54899;SDS011;40801;41.924;25.562;2023-07-24T01:57:03;35.45;;;27.33;;
54899;SDS011;40801;41.924;25.562;2023-07-24T01:59:29;41.58;;;29.13;;
54899;SDS011;40801;41.924;25.562;2023-07-24T02:01:54;34.58;;;28.73;;
54899;SDS011;40801;41.924;25.562;2023-07-24T02:04:20;37.55;;;27.60;;
54899;SDS011;40801;41.924;25.562;2023-07-24T02:06:47;29.90;;;25.58;;
54899;SDS011;40801;41.924;25.562;2023-07-24T02:09:14;32.42;;;27.17;;
54899;SDS011;40801;41.924;25.562;2023-07-24T02:11:39;36.95;;;30.20;;
54899;SDS011;40801;41.924;25.562;2023-07-24T02:14:05;37.22;;;29.27;;
54899;SDS011;40801;41.924;25.562;2023-07-24T02:16:30;33.17;;;28.17;;
54899;SDS011;40801;41.924;25.562;2023-07-24T02:18:56;37.60;;;29.05;;
54899;SDS011;40801;41.924;25.562;2023-07-24T02:21:21;39.38;;;28.27;;
54899;SDS011;40801;41.924;25.562;2023-07-24T02:23:46;39.55;;;30.13;;
54899;SDS011;40801;41.924;25.562;2023-07-24T02:26:12;38.53;;;29.90;;
54899;SDS011;40801;41.924;25.562;2023-07-24T02:28:37;43.63;;;32.05;;
54899;SDS011;40801;41.924;25.562;2023-07-24T02:31:03;43.53;;;32.40;;
54899;SDS011;40801;41.924;25.562;2023-07-24T02:33:28;47.53;;;32.90;;
54899;SDS011;40801;41.924;25.562;2023-07-24T02:35:53;54.00;;;34.88;;
54899;SDS011;40801;41.924;25.562;2023-07-24T02:38:19;55.20;;;35.97;;
54899;SDS011;40801;41.924;25.562;2023-07-24T02:40:44;56.35;;;34.97;;
54899;SDS011;40801;41.924;25.562;2023-07-24T02:43:10;48.97;;;35.13;;
54899;SDS011;40801;41.924;25.562;2023-07-24T02:45:37;49.25;;;33.92;;
54899;SDS011;40801;41.924;25.562;2023-07-24T02:48:03;50.65;;;35.53;;
54899;SDS011;40801;41.924;25.562;2023-07-24T02:50:28;61.42;;;40.60;;
54899;SDS011;40801;41.924;25.562;2023-07-24T02:52:54;65.95;;;39.70;;
54899;SDS011;40801;41.924;25.562;2023-07-24T02:55:19;75.05;;;41.55;;
54899;SDS011;40801;41.924;25.562;2023-07-24T02:57:45;68.72;;;41.65;;
54899;SDS011;40801;41.924;25.562;2023-07-24T03:00:11;66.25;;;41.10;;
54899;SDS011;40801;41.924;25.562;2023-07-24T03:02:37;75.82;;;44.83;;
54899;SDS011;40801;41.924;25.562;2023-07-24T03:05:03;77.57;;;43.38;;
54899;SDS011;40801;41.924;25.562;2023-07-24T03:07:29;79.93;;;46.20;;
54899;SDS011;40801;41.924;25.562;2023-07-24T03:09:54;82.88;;;46.70;;
54899;SDS011;40801;41.924;25.562;2023-07-24T03:12:19;90.53;;;49.60;;
54899;SDS011;40801;41.924;25.562;2023-07-24T03:14:45;89.93;;;49.75;;
54899;SDS011;40801;41.924;25.562;2023-07-24T03:17:10;89.50;;;49.90;;
54899;SDS011;40801;41.924;25.562;2023-07-24T03:19:36;110.82;;;53.40;;
54899;SDS011;40801;41.924;25.562;2023-07-24T03:22:01;111.90;;;56.28;;
54899;SDS011;40801;41.924;25.562;2023-07-24T03:24:27;113.30;;;55.50;;
54899;SDS011;40801;41.924;25.562;2023-07-24T03:26:53;109.38;;;53.83;;
54899;SDS011;40801;41.924;25.562;2023-07-24T03:29:18;106.03;;;55.55;;
54899;SDS011;40801;41.924;25.562;2023-07-24T03:31:43;111.38;;;53.90;;
54899;SDS011;40801;41.924;25.562;2023-07-24T03:34:09;106.13;;;52.97;;
54899;SDS011;40801;41.924;25.562;2023-07-24T03:36:34;117.45;;;56.75;;
54899;SDS011;40801;41.924;25.562;2023-07-24T03:39:00;108.53;;;53.97;;
54899;SDS011;40801;41.924;25.562;2023-07-24T03:41:26;105.80;;;52.42;;
54899;SDS011;40801;41.924;25.562;2023-07-24T03:43:51;102.05;;;54.05;;
54899;SDS011;40801;41.924;25.562;2023-07-24T03:46:17;95.60;;;53.30;;
54899;SDS011;40801;41.924;25.562;2023-07-24T03:48:42;101.82;;;53.85;;
54899;SDS011;40801;41.924;25.562;2023-07-24T03:51:08;96.85;;;52.47;;
54899;SDS011;40801;41.924;25.562;2023-07-24T03:53:33;91.95;;;52.83;;
54899;SDS011;40801;41.924;25.562;2023-07-24T03:55:58;95.43;;;52.05;;
54899;SDS011;40801;41.924;25.562;2023-07-24T03:58:24;97.45;;;49.38;;
54899;SDS011;40801;41.924;25.562;2023-07-24T04:00:49;99.57;;;51.78;;
54899;SDS011;40801;41.924;25.562;2023-07-24T04:03:15;88.50;;;51.15;;
54899;SDS011;40801;41.924;25.562;2023-07-24T04:05:41;94.78;;;51.95;;
54899;SDS011;40801;41.924;25.562;2023-07-24T04:08:06;99.60;;;50.33;;
54899;SDS011;40801;41.924;25.562;2023-07-24T04:10:32;111.22;;;53.47;;
54899;SDS011;40801;41.924;25.562;2023-07-24T04:12:57;107.68;;;56.25;;
54899;SDS011;40801;41.924;25.562;2023-07-24T04:15:23;104.35;;;54.45;;
54899;SDS011;40801;41.924;25.562;2023-07-24T04:17:48;111.55;;;55.15;;
54899;SDS011;40801;41.924;25.562;2023-07-24T04:20:14;116.65;;;56.83;;
54899;SDS011;40801;41.924;25.562;2023-07-24T04:22:39;108.93;;;54.22;;
54899;SDS011;40801;41.924;25.562;2023-07-24T04:25:05;110.65;;;54.20;;
54899;SDS011;40801;41.924;25.562;2023-07-24T04:27:30;112.82;;;56.47;;
54899;SDS011;40801;41.924;25.562;2023-07-24T04:29:56;110.70;;;56.80;;
54899;SDS011;40801;41.924;25.562;2023-07-24T04:32:21;120.72;;;56.97;;
54899;SDS011;40801;41.924;25.562;2023-07-24T04:34:46;126.70;;;59.00;;
54899;SDS011;40801;41.924;25.562;2023-07-24T04:37:12;123.05;;;57.17;;
54899;SDS011;40801;41.924;25.562;2023-07-24T04:39:40;137.07;;;60.47;;
54899;SDS011;40801;41.924;25.562;2023-07-24T04:42:06;123.03;;;59.50;;
54899;SDS011;40801;41.924;25.562;2023-07-24T04:44:31;127.18;;;62.13;;
54899;SDS011;40801;41.924;25.562;2023-07-24T04:46:57;128.07;;;59.72;;
54899;SDS011;40801;41.924;25.562;2023-07-24T04:49:23;125.10;;;61.03;;
54899;SDS011;40801;41.924;25.562;2023-07-24T04:51:49;120.53;;;59.67;;
54899;SDS011;40801;41.924;25.562;2023-07-24T04:54:15;129.73;;;60.65;;
54899;SDS011;40801;41.924;25.562;2023-07-24T04:56:40;126.13;;;59.38;;
54899;SDS011;40801;41.924;25.562;2023-07-24T04:59:06;137.32;;;62.33;;
54899;SDS011;40801;41.924;25.562;2023-07-24T05:01:31;148.70;;;64.68;;
54899;SDS011;40801;41.924;25.562;2023-07-24T05:03:56;138.55;;;63.17;;
54899;SDS011;40801;41.924;25.562;2023-07-24T05:06:22;156.40;;;67.20;;
54899;SDS011;40801;41.924;25.562;2023-07-24T05:08:48;161.10;;;69.88;;
54899;SDS011;40801;41.924;25.562;2023-07-24T05:11:13;160.77;;;68.68;;
54899;SDS011;40801;41.924;25.562;2023-07-24T05:13:39;145.48;;;67.00;;
54899;SDS011;40801;41.924;25.562;2023-07-24T05:16:04;141.35;;;65.25;;
54899;SDS011;40801;41.924;25.562;2023-07-24T05:18:30;155.57;;;69.55;;
54899;SDS011;40801;41.924;25.562;2023-07-24T05:20:55;132.77;;;62.15;;
54899;SDS011;40801;41.924;25.562;2023-07-24T05:23:20;139.05;;;60.42;;
54899;SDS011;40801;41.924;25.562;2023-07-24T05:25:46;133.20;;;64.45;;
54899;SDS011;40801;41.924;25.562;2023-07-24T05:28:12;143.85;;;63.33;;
54899;SDS011;40801;41.924;25.562;2023-07-24T05:30:37;156.13;;;69.05;;
54899;SDS011;40801;41.924;25.562;2023-07-24T05:33:02;149.05;;;64.70;;
54899;SDS011;40801;41.924;25.562;2023-07-24T05:35:28;121.78;;;60.80;;
54899;SDS011;40801;41.924;25.562;2023-07-24T05:37:53;140.45;;;64.38;;
54899;SDS011;40801;41.924;25.562;2023-07-24T05:40:19;153.18;;;68.93;;
54899;SDS011;40801;41.924;25.562;2023-07-24T05:42:44;130.43;;;61.22;;
54899;SDS011;40801;41.924;25.562;2023-07-24T05:45:12;120.28;;;60.08;;
54899;SDS011;40801;41.924;25.562;2023-07-24T05:47:37;130.73;;;58.47;;
54899;SDS011;40801;41.924;25.562;2023-07-24T05:50:02;131.68;;;60.65;;
54899;SDS011;40801;41.924;25.562;2023-07-24T05:52:28;128.18;;;58.38;;
54899;SDS011;40801;41.924;25.562;2023-07-24T05:54:54;146.40;;;65.93;;
54899;SDS011;40801;41.924;25.562;2023-07-24T05:57:19;135.43;;;62.33;;
54899;SDS011;40801;41.924;25.562;2023-07-24T05:59:44;120.38;;;58.13;;
54899;SDS011;40801;41.924;25.562;2023-07-24T06:02:10;132.75;;;58.75;;
54899;SDS011;40801;41.924;25.562;2023-07-24T06:04:36;127.30;;;58.83;;
54899;SDS011;40801;41.924;25.562;2023-07-24T06:07:01;121.80;;;57.72;;
54899;SDS011;40801;41.924;25.562;2023-07-24T06:09:27;123.22;;;56.53;;
54899;SDS011;40801;41.924;25.562;2023-07-24T06:11:52;109.80;;;55.40;;
54899;SDS011;40801;41.924;25.562;2023-07-24T06:14:36;105.30;;;54.28;;
54899;SDS011;40801;41.924;25.562;2023-07-24T06:17:01;110.35;;;57.20;;
54899;SDS011;40801;41.924;25.562;2023-07-24T06:19:27;109.75;;;56.38;;
54899;SDS011;40801;41.924;25.562;2023-07-24T06:21:52;124.47;;;59.88;;
54899;SDS011;40801;41.924;25.562;2023-07-24T06:24:18;100.10;;;51.90;;
54899;SDS011;40801;41.924;25.562;2023-07-24T06:26:43;109.00;;;53.40;;
54899;SDS011;40801;41.924;25.562;2023-07-24T06:29:08;115.35;;;53.45;;
54899;SDS011;40801;41.924;25.562;2023-07-24T06:31:34;113.75;;;54.45;;
54899;SDS011;40801;41.924;25.562;2023-07-24T06:33:59;108.57;;;55.03;;
54899;SDS011;40801;41.924;25.562;2023-07-24T06:36:24;116.03;;;56.17;;
54899;SDS011;40801;41.924;25.562;2023-07-24T06:38:50;134.02;;;66.20;;
54899;SDS011;40801;41.924;25.562;2023-07-24T06:41:15;139.63;;;62.72;;
54899;SDS011;40801;41.924;25.562;2023-07-24T06:43:41;133.02;;;65.85;;
54899;SDS011;40801;41.924;25.562;2023-07-24T06:46:07;135.60;;;63.13;;
54899;SDS011;40801;41.924;25.562;2023-07-24T06:48:33;144.60;;;62.80;;
54899;SDS011;40801;41.924;25.562;2023-07-24T06:50:58;123.90;;;64.18;;
54899;SDS011;40801;41.924;25.562;2023-07-24T06:53:23;140.95;;;63.65;;
54899;SDS011;40801;41.924;25.562;2023-07-24T06:55:49;126.43;;;61.25;;
54899;SDS011;40801;41.924;25.562;2023-07-24T06:58:14;134.35;;;63.05;;
54899;SDS011;40801;41.924;25.562;2023-07-24T07:00:40;136.07;;;65.60;;
54899;SDS011;40801;41.924;25.562;2023-07-24T07:03:05;141.15;;;65.20;;
54899;SDS011;40801;41.924;25.562;2023-07-24T07:08:14;128.65;;;63.58;;
54899;SDS011;40801;41.924;25.562;2023-07-24T07:10:40;134.85;;;63.97;;
54899;SDS011;40801;41.924;25.562;2023-07-24T07:13:05;134.43;;;65.18;;
54899;SDS011;40801;41.924;25.562;2023-07-24T07:15:31;126.03;;;62.88;;
54899;SDS011;40801;41.924;25.562;2023-07-24T07:17:56;126.90;;;62.60;;
54899;SDS011;40801;41.924;25.562;2023-07-24T07:20:21;121.88;;;61.17;;
54899;SDS011;40801;41.924;25.562;2023-07-24T07:22:47;118.88;;;58.33;;
54899;SDS011;40801;41.924;25.562;2023-07-24T07:25:12;111.38;;;58.13;;
54899;SDS011;40801;41.924;25.562;2023-07-24T07:27:37;110.00;;;57.40;;
54899;SDS011;40801;41.924;25.562;2023-07-24T07:30:03;107.57;;;58.05;;
54899;SDS011;40801;41.924;25.562;2023-07-24T07:32:29;113.88;;;59.17;;
54899;SDS011;40801;41.924;25.562;2023-07-24T07:34:54;101.70;;;54.28;;
54899;SDS011;40801;41.924;25.562;2023-07-24T07:37:20;119.05;;;58.33;;
54899;SDS011;40801;41.924;25.562;2023-07-24T07:39:45;111.63;;;57.95;;
54899;SDS011;40801;41.924;25.562;2023-07-24T07:42:11;116.05;;;60.38;;
54899;SDS011;40801;41.924;25.562;2023-07-24T07:44:36;113.57;;;57.20;;
54899;SDS011;40801;41.924;25.562;2023-07-24T07:47:01;112.95;;;58.70;;
54899;SDS011;40801;41.924;25.562;2023-07-24T07:49:27;102.20;;;53.38;;
54899;SDS011;40801;41.924;25.562;2023-07-24T07:51:52;103.13;;;54.28;;
54899;SDS011;40801;41.924;25.562;2023-07-24T07:54:18;100.32;;;53.33;;
54899;SDS011;40801;41.924;25.562;2023-07-24T07:56:43;110.40;;;55.63;;
54899;SDS011;40801;41.924;25.562;2023-07-24T07:59:09;104.43;;;53.17;;
54899;SDS011;40801;41.924;25.562;2023-07-24T08:01:35;108.03;;;54.90;;
54899;SDS011;40801;41.924;25.562;2023-07-24T08:04:01;105.25;;;54.03;;
54899;SDS011;40801;41.924;25.562;2023-07-24T08:06:27;97.22;;;52.53;;
54899;SDS011;40801;41.924;25.562;2023-07-24T08:08:52;104.25;;;55.53;;
54899;SDS011;40801;41.924;25.562;2023-07-24T08:11:18;113.13;;;58.75;;
54899;SDS011;40801;41.924;25.562;2023-07-24T08:13:43;98.32;;;52.47;;
54899;SDS011;40801;41.924;25.562;2023-07-24T08:16:14;102.40;;;55.88;;
54899;SDS011;40801;41.924;25.562;2023-07-24T08:18:46;112.97;;;57.63;;
54899;SDS011;40801;41.924;25.562;2023-07-24T08:21:12;109.35;;;55.83;;
54899;SDS011;40801;41.924;25.562;2023-07-24T08:23:38;100.82;;;54.42;;
54899;SDS011;40801;41.924;25.562;2023-07-24T08:26:04;87.80;;;47.80;;
54899;SDS011;40801;41.924;25.562;2023-07-24T08:28:31;78.60;;;42.95;;
54899;SDS011;40801;41.924;25.562;2023-07-24T08:30:59;72.60;;;40.03;;
54899;SDS011;40801;41.924;25.562;2023-07-24T08:33:26;74.80;;;41.92;;
54899;SDS011;40801;41.924;25.562;2023-07-24T08:36:01;68.65;;;37.22;;
54899;SDS011;40801;41.924;25.562;2023-07-24T08:38:31;74.50;;;41.50;;
54899;SDS011;40801;41.924;25.562;2023-07-24T08:41:15;65.50;;;35.17;;
54899;SDS011;40801;41.924;25.562;2023-07-24T08:43:42;68.20;;;40.63;;
54899;SDS011;40801;41.924;25.562;2023-07-24T08:46:08;64.50;;;39.47;;
54899;SDS011;40801;41.924;25.562;2023-07-24T08:48:35;56.67;;;34.45;;
54899;SDS011;40801;41.924;25.562;2023-07-24T08:51:02;60.88;;;36.03;;
54899;SDS011;40801;41.924;25.562;2023-07-24T08:53:29;53.67;;;32.70;;
54899;SDS011;40801;41.924;25.562;2023-07-24T08:55:56;55.53;;;31.73;;
54899;SDS011;40801;41.924;25.562;2023-07-24T08:58:22;51.22;;;31.63;;
54899;SDS011;40801;41.924;25.562;2023-07-24T09:00:47;51.75;;;31.63;;
54899;SDS011;40801;41.924;25.562;2023-07-24T09:03:13;44.83;;;28.83;;
54899;SDS011;40801;41.924;25.562;2023-07-24T09:05:38;41.22;;;24.95;;
54899;SDS011;40801;41.924;25.562;2023-07-24T09:08:04;40.75;;;25.73;;
54899;SDS011;40801;41.924;25.562;2023-07-24T09:10:29;32.70;;;22.42;;
54899;SDS011;40801;41.924;25.562;2023-07-24T09:12:55;36.28;;;23.45;;
54899;SDS011;40801;41.924;25.562;2023-07-24T09:15:20;36.03;;;23.73;;
54899;SDS011;40801;41.924;25.562;2023-07-24T09:17:52;37.97;;;22.13;;
54899;SDS011;40801;41.924;25.562;2023-07-24T09:20:18;44.65;;;25.25;;
54899;SDS011;40801;41.924;25.562;2023-07-24T09:22:50;43.35;;;25.73;;
54899;SDS011;40801;41.924;25.562;2023-07-24T09:25:17;33.38;;;21.63;;
54899;SDS011;40801;41.924;25.562;2023-07-24T09:28:09;40.20;;;23.23;;
54899;SDS011;40801;41.924;25.562;2023-07-24T09:30:39;33.40;;;21.98;;
54899;SDS011;40801;41.924;25.562;2023-07-24T09:33:06;29.90;;;19.02;;
54899;SDS011;40801;41.924;25.562;2023-07-24T09:35:32;28.85;;;19.67;;
54899;SDS011;40801;41.924;25.562;2023-07-24T09:38:10;29.30;;;18.85;;
54899;SDS011;40801;41.924;25.562;2023-07-24T09:40:40;35.88;;;20.67;;
54899;SDS011;40801;41.924;25.562;2023-07-24T09:43:28;30.52;;;18.50;;
54899;SDS011;40801;41.924;25.562;2023-07-24T09:45:54;27.88;;;17.35;;
54899;SDS011;40801;41.924;25.562;2023-07-24T09:48:22;26.48;;;15.45;;
54899;SDS011;40801;41.924;25.562;2023-07-24T09:53:28;24.33;;;14.70;;
54899;SDS011;40801;41.924;25.562;2023-07-24T09:56:03;27.90;;;15.55;;
54899;SDS011;40801;41.924;25.562;2023-07-24T09:58:34;25.55;;;15.10;;
54899;SDS011;40801;41.924;25.562;2023-07-24T10:01:04;20.48;;;13.85;;
54899;SDS011;40801;41.924;25.562;2023-07-24T10:03:32;19.95;;;13.70;;
54899;SDS011;40801;41.924;25.562;2023-07-24T10:05:59;19.25;;;12.52;;
54899;SDS011;40801;41.924;25.562;2023-07-24T10:08:25;20.25;;;12.77;;
54899;SDS011;40801;41.924;25.562;2023-07-24T10:10:51;26.42;;;13.23;;
54899;SDS011;40801;41.924;25.562;2023-07-24T10:13:18;16.60;;;11.27;;
54899;SDS011;40801;41.924;25.562;2023-07-24T10:15:46;19.52;;;12.55;;
54899;SDS011;40801;41.924;25.562;2023-07-24T10:18:12;18.73;;;11.73;;
54899;SDS011;40801;41.924;25.562;2023-07-24T10:20:41;19.08;;;11.93;;
54899;SDS011;40801;41.924;25.562;2023-07-24T10:23:07;17.02;;;11.75;;
54899;SDS011;40801;41.924;25.562;2023-07-24T10:28:05;18.67;;;11.30;;
54899;SDS011;40801;41.924;25.562;2023-07-24T10:30:35;18.45;;;11.68;;
54899;SDS011;40801;41.924;25.562;2023-07-24T10:33:09;18.98;;;12.60;;
54899;SDS011;40801;41.924;25.562;2023-07-24T10:36:04;17.83;;;11.80;;
54899;SDS011;40801;41.924;25.562;2023-07-24T10:38:42;16.67;;;11.30;;
54899;SDS011;40801;41.924;25.562;2023-07-24T10:41:08;15.98;;;11.15;;
54899;SDS011;40801;41.924;25.562;2023-07-24T10:43:44;17.10;;;11.95;;
54899;SDS011;40801;41.924;25.562;2023-07-24T10:46:11;19.55;;;12.10;;
54899;SDS011;40801;41.924;25.562;2023-07-24T10:48:37;15.57;;;10.80;;
54899;SDS011;40801;41.924;25.562;2023-07-24T10:51:07;15.48;;;10.30;;
54899;SDS011;40801;41.924;25.562;2023-07-24T10:53:34;14.93;;;11.25;;
54899;SDS011;40801;41.924;25.562;2023-07-24T10:56:03;14.63;;;11.48;;
54899;SDS011;40801;41.924;25.562;2023-07-24T10:58:30;18.40;;;12.20;;
54899;SDS011;40801;41.924;25.562;2023-07-24T11:00:56;15.45;;;11.35;;
54899;SDS011;40801;41.924;25.562;2023-07-24T11:03:22;20.40;;;12.30;;
54899;SDS011;40801;41.924;25.562;2023-07-24T11:05:48;18.02;;;12.60;;
54899;SDS011;40801;41.924;25.562;2023-07-24T11:08:15;18.25;;;11.65;;
54899;SDS011;40801;41.924;25.562;2023-07-24T11:13:15;15.70;;;10.85;;
54899;SDS011;40801;41.924;25.562;2023-07-24T11:15:45;12.63;;;10.60;;
54899;SDS011;40801;41.924;25.562;2023-07-24T11:18:11;18.95;;;12.00;;
54899;SDS011;40801;41.924;25.562;2023-07-24T11:20:38;14.20;;;10.75;;
54899;SDS011;40801;41.924;25.562;2023-07-24T11:23:11;13.43;;;10.30;;
54899;SDS011;40801;41.924;25.562;2023-07-24T11:25:37;14.93;;;10.55;;
54899;SDS011;40801;41.924;25.562;2023-07-24T11:28:04;14.32;;;10.63;;
54899;SDS011;40801;41.924;25.562;2023-07-24T11:30:34;12.63;;;10.25;;
54899;SDS011;40801;41.924;25.562;2023-07-24T11:33:00;11.95;;;9.05;;
54899;SDS011;40801;41.924;25.562;2023-07-24T11:35:29;11.60;;;10.40;;
54899;SDS011;40801;41.924;25.562;2023-07-24T11:37:55;11.52;;;9.98;;
54899;SDS011;40801;41.924;25.562;2023-07-24T11:40:21;12.35;;;10.98;;
54899;SDS011;40801;41.924;25.562;2023-07-24T11:42:47;14.93;;;11.18;;
54899;SDS011;40801;41.924;25.562;2023-07-24T11:45:13;10.27;;;8.93;;
54899;SDS011;40801;41.924;25.562;2023-07-24T11:47:49;13.38;;;11.35;;
54899;SDS011;40801;41.924;25.562;2023-07-24T11:50:16;12.90;;;9.27;;
54899;SDS011;40801;41.924;25.562;2023-07-24T11:52:44;11.32;;;9.70;;
54899;SDS011;40801;41.924;25.562;2023-07-24T11:55:11;14.85;;;11.93;;
54899;SDS011;40801;41.924;25.562;2023-07-24T11:57:37;11.40;;;9.52;;
54899;SDS011;40801;41.924;25.562;2023-07-24T12:00:04;12.15;;;10.10;;
54899;SDS011;40801;41.924;25.562;2023-07-24T12:02:32;11.57;;;9.32;;
54899;SDS011;40801;41.924;25.562;2023-07-24T12:04:58;14.15;;;10.77;;
54899;SDS011;40801;41.924;25.562;2023-07-24T12:07:31;11.80;;;10.60;;
54899;SDS011;40801;41.924;25.562;2023-07-24T12:10:01;12.35;;;10.60;;
54899;SDS011;40801;41.924;25.562;2023-07-24T12:15:24;12.48;;;11.18;;
54899;SDS011;40801;41.924;25.562;2023-07-24T12:17:51;12.93;;;11.43;;
54899;SDS011;40801;41.924;25.562;2023-07-24T12:20:16;12.50;;;10.75;;
54899;SDS011;40801;41.924;25.562;2023-07-24T12:22:42;13.07;;;10.30;;
54899;SDS011;40801;41.924;25.562;2023-07-24T12:25:07;12.10;;;10.82;;
54899;SDS011;40801;41.924;25.562;2023-07-24T12:27:33;18.55;;;16.65;;
54899;SDS011;40801;41.924;25.562;2023-07-24T12:29:59;15.07;;;11.82;;
54899;SDS011;40801;41.924;25.562;2023-07-24T12:32:25;18.27;;;16.42;;
54899;SDS011;40801;41.924;25.562;2023-07-24T12:34:50;12.27;;;11.00;;
54899;SDS011;40801;41.924;25.562;2023-07-24T12:37:17;15.23;;;13.63;;
54899;SDS011;40801;41.924;25.562;2023-07-24T12:39:43;11.77;;;10.57;;
54899;SDS011;40801;41.924;25.562;2023-07-24T12:42:10;11.93;;;10.77;;
54899;SDS011;40801;41.924;25.562;2023-07-24T12:44:36;11.85;;;10.45;;
54899;SDS011;40801;41.924;25.562;2023-07-24T12:47:01;13.20;;;11.50;;
54899;SDS011;40801;41.924;25.562;2023-07-24T12:49:27;13.25;;;11.45;;
54899;SDS011;40801;41.924;25.562;2023-07-24T12:51:52;13.57;;;12.27;;
54899;SDS011;40801;41.924;25.562;2023-07-24T12:54:17;13.27;;;11.88;;
54899;SDS011;40801;41.924;25.562;2023-07-24T12:56:45;15.77;;;12.52;;
54899;SDS011;40801;41.924;25.562;2023-07-24T12:59:11;14.05;;;12.55;;
54899;SDS011;40801;41.924;25.562;2023-07-24T13:01:36;17.33;;;15.48;;
54899;SDS011;40801;41.924;25.562;2023-07-24T13:04:02;12.65;;;11.50;;
54899;SDS011;40801;41.924;25.562;2023-07-24T13:06:27;10.88;;;9.93;;
54899;SDS011;40801;41.924;25.562;2023-07-24T13:08:53;12.13;;;10.98;;
54899;SDS011;40801;41.924;25.562;2023-07-24T13:11:18;12.60;;;11.13;;
54899;SDS011;40801;41.924;25.562;2023-07-24T13:13:43;12.50;;;11.40;;
54899;SDS011;40801;41.924;25.562;2023-07-24T13:16:09;12.23;;;11.10;;
54899;SDS011;40801;41.924;25.562;2023-07-24T13:18:34;12.45;;;11.25;;
54899;SDS011;40801;41.924;25.562;2023-07-24T13:21:00;11.63;;;10.57;;
54899;SDS011;40801;41.924;25.562;2023-07-24T13:23:25;11.65;;;10.52;;
54899;SDS011;40801;41.924;25.562;2023-07-24T13:25:51;12.02;;;10.93;;
54899;SDS011;40801;41.924;25.562;2023-07-24T13:28:17;12.40;;;11.20;;
54899;SDS011;40801;41.924;25.562;2023-07-24T13:30:43;13.27;;;11.90;;
54899;SDS011;40801;41.924;25.562;2023-07-24T13:33:09;13.05;;;11.73;;
54899;SDS011;40801;41.924;25.562;2023-07-24T13:35:34;12.43;;;11.23;;
54899;SDS011;40801;41.924;25.562;2023-07-24T13:38:00;12.50;;;11.35;;
54899;SDS011;40801;41.924;25.562;2023-07-24T13:40:25;11.13;;;10.13;;
54899;SDS011;40801;41.924;25.562;2023-07-24T13:42:51;10.98;;;9.98;;
54899;SDS011;40801;41.924;25.562;2023-07-24T13:45:16;10.65;;;9.63;;
54899;SDS011;40801;41.924;25.562;2023-07-24T13:47:42;12.43;;;11.32;;
54899;SDS011;40801;41.924;25.562;2023-07-24T13:50:07;10.25;;;9.32;;
54899;SDS011;40801;41.924;25.562;2023-07-24T13:52:33;9.63;;;8.73;;
54899;SDS011;40801;41.924;25.562;2023-07-24T13:54:58;9.98;;;9.15;;
54899;SDS011;40801;41.924;25.562;2023-07-24T13:57:24;10.10;;;9.20;;
54899;SDS011;40801;41.924;25.562;2023-07-24T13:59:49;8.77;;;8.00;;
54899;SDS011;40801;41.924;25.562;2023-07-24T14:02:14;9.55;;;8.73;;
54899;SDS011;40801;41.924;25.562;2023-07-24T14:04:40;9.07;;;8.07;;
54899;SDS011;40801;41.924;25.562;2023-07-24T14:07:05;8.90;;;8.07;;
54899;SDS011;40801;41.924;25.562;2023-07-24T14:09:31;8.25;;;7.45;;
54899;SDS011;40801;41.924;25.562;2023-07-24T14:11:58;9.05;;;8.20;;
54899;SDS011;40801;41.924;25.562;2023-07-24T14:14:23;8.82;;;8.02;;
54899;SDS011;40801;41.924;25.562;2023-07-24T14:16:49;10.02;;;9.07;;
54899;SDS011;40801;41.924;25.562;2023-07-24T14:19:15;9.18;;;8.30;;
54899;SDS011;40801;41.924;25.562;2023-07-24T14:21:41;9.77;;;8.25;;
54899;SDS011;40801;41.924;25.562;2023-07-24T14:24:06;9.60;;;8.68;;
54899;SDS011;40801;41.924;25.562;2023-07-24T14:26:32;9.32;;;8.50;;